Meath Environmental Platform

Observations for Trim Market St

Time AQI Temp °C Hum % Pres Pa CO μg/m³ H₂S μg/m³ NO μg/m³ NO₂ μg/m³ O₃ μg/m³ SO₂ μg/m³ PM1 μg/m³ PM2.5 μg/m³ PM10 μg/m³
Wednesday 8 July 2026
18:38 1 33.6 39 65,631 0 22.79 0 20.77 10.16 0.46 1.43 5.58 5.9
18:37 1 33.6 39 65,690 0 21.87 0 18.29 11.47 0.59 4.28 7.17 8.34
18:36 1 33.7 39 65,704 0 23.67 0 22.27 0 0.77 4.99 8.24 9.96
18:34 1 33.8 39 65,723 0 21.91 0 17.14 4.97 0.7 3.56 7.18 8.34
18:33 1 33.8 39 65,713 0 25.6 0 17.54 15.47 1.13 4.28 7.71 9.15
18:32 1 33.9 39 65,732 0 27.19 0 20.02 8.31 1.07 4.28 7.18 8.34
18:31 1 33.9 39 65,752 0 28.05 0 21.72 6.79 1.82 4.28 6.65 7.53
18:30 1 34 39 65,780 0 28.07 0 20.21 10.99 1.54 3.56 6.66 7.53
18:29 1 34 38 65,841 0 28.34 0 19.42 6.5 1.49 3.56 7.19 8.34
18:28 1 34.1 38 65,866 0 31.6 0 21.6 14.95 1.5 3.56 6.66 7.53
18:27 1 34.1 38 65,923 0 31 0 21.83 12.47 1.72 4.99 7.74 9.16
18:25 1 34.2 38 66,035 0 30.16 0 20.75 18.2 1.47 4.28 7.76 9.98
18:24 1 34.2 38 66,082 0 28.46 0 21.46 12.78 1.28 3.56 7.24 8.34
18:15 1 34.7 35 66,447 0 31.99 0 25.39 24.01 0.83 3.56 6.29 8.36
18:10 1 34.8 34 66,529 0 17.3 0 20.19 4.48 0.22 4.99 8.49 10.88
18:07 1 34.9 34 66,608 0 17.7 0 15.58 11.2 1.47 4.28 9.04 10.89
18:06 1 35 34 66,602 0 18.02 0 16.87 17.75 1.29 4.28 8.51 11.73
18:03 1 35.1 34 66,610 0 22.14 0 26.06 0 0.37 4.28 8.52 10.05
18:02 1 35.1 34 66,600 0 22 0 20.37 5.88 1 3.56 6.92 7.53
18:01 1 35.1 34 66,617 0 24.08 0 21.68 1.59 1.57 3.56 8 9.21